sensor_id;sensor_type;location;lat;lon;timestamp;P1;durP1;ratioP1;P2;durP2;ratioP2
8574;SDS011;4325;42.520;27.448;2022-09-09T00:02:10;8.93;;;4.50;;
8574;SDS011;4325;42.520;27.448;2022-09-09T00:04:45;6.50;;;4.17;;
8574;SDS011;4325;42.520;27.448;2022-09-09T00:07:22;5.50;;;3.90;;
8574;SDS011;4325;42.520;27.448;2022-09-09T00:09:57;5.57;;;4.40;;
8574;SDS011;4325;42.520;27.448;2022-09-09T00:12:34;6.57;;;4.20;;
8574;SDS011;4325;42.520;27.448;2022-09-09T00:15:11;4.67;;;4.00;;
8574;SDS011;4325;42.520;27.448;2022-09-09T00:17:43;6.93;;;4.13;;
8574;SDS011;4325;42.520;27.448;2022-09-09T00:20:21;5.27;;;4.10;;
8574;SDS011;4325;42.520;27.448;2022-09-09T00:22:55;8.70;;;4.17;;
8574;SDS011;4325;42.520;27.448;2022-09-09T00:25:29;6.33;;;4.53;;
8574;SDS011;4325;42.520;27.448;2022-09-09T00:28:02;5.90;;;4.17;;
8574;SDS011;4325;42.520;27.448;2022-09-09T00:30:34;6.27;;;4.60;;
8574;SDS011;4325;42.520;27.448;2022-09-09T00:33:08;5.37;;;4.23;;
8574;SDS011;4325;42.520;27.448;2022-09-09T00:35:41;4.27;;;3.70;;
8574;SDS011;4325;42.520;27.448;2022-09-09T00:38:14;7.43;;;4.07;;
8574;SDS011;4325;42.520;27.448;2022-09-09T00:40:45;4.70;;;4.00;;
8574;SDS011;4325;42.520;27.448;2022-09-09T00:43:21;6.47;;;4.20;;
8574;SDS011;4325;42.520;27.448;2022-09-09T00:49:00;6.77;;;4.43;;
8574;SDS011;4325;42.520;27.448;2022-09-09T00:51:39;8.70;;;4.93;;
8574;SDS011;4325;42.520;27.448;2022-09-09T00:54:25;7.83;;;4.27;;
8574;SDS011;4325;42.520;27.448;2022-09-09T00:57:05;5.30;;;4.77;;
8574;SDS011;4325;42.520;27.448;2022-09-09T00:59:43;6.90;;;4.80;;
8574;SDS011;4325;42.520;27.448;2022-09-09T01:02:16;6.30;;;4.07;;
8574;SDS011;4325;42.520;27.448;2022-09-09T01:04:53;5.17;;;4.07;;
8574;SDS011;4325;42.520;27.448;2022-09-09T01:07:20;8.53;;;4.17;;
8574;SDS011;4325;42.520;27.448;2022-09-09T01:09:51;5.30;;;4.20;;
8574;SDS011;4325;42.520;27.448;2022-09-09T01:12:25;4.87;;;4.47;;
8574;SDS011;4325;42.520;27.448;2022-09-09T01:14:56;7.30;;;4.50;;
8574;SDS011;4325;42.520;27.448;2022-09-09T01:17:31;8.23;;;5.20;;
8574;SDS011;4325;42.520;27.448;2022-09-09T01:20:05;8.93;;;6.00;;
8574;SDS011;4325;42.520;27.448;2022-09-09T01:22:40;13.53;;;12.13;;
8574;SDS011;4325;42.520;27.448;2022-09-09T01:25:20;7.17;;;5.70;;
8574;SDS011;4325;42.520;27.448;2022-09-09T01:27:56;6.03;;;5.43;;
8574;SDS011;4325;42.520;27.448;2022-09-09T01:30:26;6.60;;;4.57;;
8574;SDS011;4325;42.520;27.448;2022-09-09T01:32:54;8.70;;;4.30;;
8574;SDS011;4325;42.520;27.448;2022-09-09T01:35:27;4.90;;;3.87;;
8574;SDS011;4325;42.520;27.448;2022-09-09T01:38:03;8.93;;;5.40;;
8574;SDS011;4325;42.520;27.448;2022-09-09T01:40:30;6.20;;;3.90;;
8574;SDS011;4325;42.520;27.448;2022-09-09T01:42:59;4.57;;;3.83;;
8574;SDS011;4325;42.520;27.448;2022-09-09T01:45:26;7.27;;;4.40;;
8574;SDS011;4325;42.520;27.448;2022-09-09T01:47:53;10.20;;;4.33;;
8574;SDS011;4325;42.520;27.448;2022-09-09T01:50:21;8.83;;;6.23;;
8574;SDS011;4325;42.520;27.448;2022-09-09T01:52:50;8.97;;;6.40;;
8574;SDS011;4325;42.520;27.448;2022-09-09T01:55:23;5.30;;;4.80;;
8574;SDS011;4325;42.520;27.448;2022-09-09T01:57:57;8.60;;;5.13;;
8574;SDS011;4325;42.520;27.448;2022-09-09T02:00:40;4.93;;;4.50;;
8574;SDS011;4325;42.520;27.448;2022-09-09T02:03:13;8.13;;;4.53;;
8574;SDS011;4325;42.520;27.448;2022-09-09T02:05:48;4.97;;;4.53;;
8574;SDS011;4325;42.520;27.448;2022-09-09T02:08:26;4.93;;;4.50;;
8574;SDS011;4325;42.520;27.448;2022-09-09T02:10:58;9.10;;;5.17;;
8574;SDS011;4325;42.520;27.448;2022-09-09T02:13:33;7.13;;;5.13;;
8574;SDS011;4325;42.520;27.448;2022-09-09T02:16:03;8.10;;;5.07;;
8574;SDS011;4325;42.520;27.448;2022-09-09T02:18:35;6.17;;;5.57;;
8574;SDS011;4325;42.520;27.448;2022-09-09T02:21:07;7.87;;;5.13;;
8574;SDS011;4325;42.520;27.448;2022-09-09T02:23:36;10.03;;;5.50;;
8574;SDS011;4325;42.520;27.448;2022-09-09T02:26:06;7.17;;;5.57;;
8574;SDS011;4325;42.520;27.448;2022-09-09T02:28:37;6.97;;;5.53;;
8574;SDS011;4325;42.520;27.448;2022-09-09T02:31:05;6.40;;;5.50;;
8574;SDS011;4325;42.520;27.448;2022-09-09T02:33:33;9.07;;;7.00;;
8574;SDS011;4325;42.520;27.448;2022-09-09T02:36:05;7.03;;;6.00;;
8574;SDS011;4325;42.520;27.448;2022-09-09T02:38:35;7.97;;;5.50;;
8574;SDS011;4325;42.520;27.448;2022-09-09T02:41:06;8.17;;;6.07;;
8574;SDS011;4325;42.520;27.448;2022-09-09T02:43:33;8.60;;;6.07;;
8574;SDS011;4325;42.520;27.448;2022-09-09T02:46:06;14.83;;;12.60;;
8574;SDS011;4325;42.520;27.448;2022-09-09T02:48:44;10.53;;;5.63;;
8574;SDS011;4325;42.520;27.448;2022-09-09T02:51:18;11.57;;;6.13;;
8574;SDS011;4325;42.520;27.448;2022-09-09T02:53:53;6.20;;;4.87;;
8574;SDS011;4325;42.520;27.448;2022-09-09T02:56:27;7.13;;;5.73;;
8574;SDS011;4325;42.520;27.448;2022-09-09T02:58:58;8.70;;;5.87;;
8574;SDS011;4325;42.520;27.448;2022-09-09T03:01:27;6.90;;;4.53;;
8574;SDS011;4325;42.520;27.448;2022-09-09T03:03:54;5.63;;;4.40;;
8574;SDS011;4325;42.520;27.448;2022-09-09T03:06:21;5.80;;;4.50;;
8574;SDS011;4325;42.520;27.448;2022-09-09T03:08:48;8.43;;;4.53;;
8574;SDS011;4325;42.520;27.448;2022-09-09T03:11:15;5.27;;;4.30;;
8574;SDS011;4325;42.520;27.448;2022-09-09T03:13:42;5.13;;;4.47;;
8574;SDS011;4325;42.520;27.448;2022-09-09T03:16:09;4.23;;;3.83;;
8574;SDS011;4325;42.520;27.448;2022-09-09T03:18:37;7.57;;;4.40;;
8574;SDS011;4325;42.520;27.448;2022-09-09T03:21:04;6.20;;;4.43;;
8574;SDS011;4325;42.520;27.448;2022-09-09T03:23:32;4.73;;;4.23;;
8574;SDS011;4325;42.520;27.448;2022-09-09T03:25:58;4.20;;;3.80;;
8574;SDS011;4325;42.520;27.448;2022-09-09T03:28:26;5.50;;;4.57;;
8574;SDS011;4325;42.520;27.448;2022-09-09T03:30:58;6.10;;;3.90;;
8574;SDS011;4325;42.520;27.448;2022-09-09T03:33:25;7.60;;;4.23;;
8574;SDS011;4325;42.520;27.448;2022-09-09T03:35:54;7.93;;;4.30;;
8574;SDS011;4325;42.520;27.448;2022-09-09T03:38:22;7.17;;;5.47;;
8574;SDS011;4325;42.520;27.448;2022-09-09T03:40:49;7.97;;;4.47;;
8574;SDS011;4325;42.520;27.448;2022-09-09T03:43:20;6.17;;;3.53;;
8574;SDS011;4325;42.520;27.448;2022-09-09T03:45:47;7.13;;;3.87;;
8574;SDS011;4325;42.520;27.448;2022-09-09T03:48:14;6.67;;;4.53;;
8574;SDS011;4325;42.520;27.448;2022-09-09T03:50:44;5.30;;;4.27;;
8574;SDS011;4325;42.520;27.448;2022-09-09T03:53:13;7.27;;;4.27;;
8574;SDS011;4325;42.520;27.448;2022-09-09T03:55:43;12.43;;;9.73;;
8574;SDS011;4325;42.520;27.448;2022-09-09T03:58:10;5.27;;;3.87;;
8574;SDS011;4325;42.520;27.448;2022-09-09T04:00:38;4.23;;;3.83;;
8574;SDS011;4325;42.520;27.448;2022-09-09T04:03:07;6.77;;;4.20;;
8574;SDS011;4325;42.520;27.448;2022-09-09T04:05:34;6.70;;;4.73;;
8574;SDS011;4325;42.520;27.448;2022-09-09T04:08:04;4.00;;;3.60;;
8574;SDS011;4325;42.520;27.448;2022-09-09T04:10:33;6.67;;;4.63;;
8574;SDS011;4325;42.520;27.448;2022-09-09T04:13:02;7.00;;;4.30;;
8574;SDS011;4325;42.520;27.448;2022-09-09T04:15:29;9.10;;;4.53;;
8574;SDS011;4325;42.520;27.448;2022-09-09T04:17:56;9.27;;;4.50;;
8574;SDS011;4325;42.520;27.448;2022-09-09T04:20:23;7.70;;;4.67;;
8574;SDS011;4325;42.520;27.448;2022-09-09T04:22:50;7.27;;;4.23;;
8574;SDS011;4325;42.520;27.448;2022-09-09T04:25:17;7.80;;;4.70;;
8574;SDS011;4325;42.520;27.448;2022-09-09T04:27:45;8.10;;;4.43;;
8574;SDS011;4325;42.520;27.448;2022-09-09T04:30:12;7.43;;;4.03;;
8574;SDS011;4325;42.520;27.448;2022-09-09T04:32:39;5.57;;;3.80;;
8574;SDS011;4325;42.520;27.448;2022-09-09T04:35:06;7.37;;;4.47;;
8574;SDS011;4325;42.520;27.448;2022-09-09T04:37:34;5.77;;;4.63;;
8574;SDS011;4325;42.520;27.448;2022-09-09T04:40:01;7.70;;;5.30;;
8574;SDS011;4325;42.520;27.448;2022-09-09T04:42:28;9.40;;;4.63;;
8574;SDS011;4325;42.520;27.448;2022-09-09T04:44:56;5.97;;;5.33;;
8574;SDS011;4325;42.520;27.448;2022-09-09T04:47:23;6.83;;;4.80;;
8574;SDS011;4325;42.520;27.448;2022-09-09T04:49:50;5.43;;;4.00;;
8574;SDS011;4325;42.520;27.448;2022-09-09T04:52:18;6.87;;;4.83;;
8574;SDS011;4325;42.520;27.448;2022-09-09T04:54:45;13.27;;;4.90;;
8574;SDS011;4325;42.520;27.448;2022-09-09T04:57:13;5.53;;;4.67;;
8574;SDS011;4325;42.520;27.448;2022-09-09T04:59:40;11.33;;;4.47;;
8574;SDS011;4325;42.520;27.448;2022-09-09T05:02:08;6.20;;;5.23;;
8574;SDS011;4325;42.520;27.448;2022-09-09T05:04:35;7.27;;;6.03;;
8574;SDS011;4325;42.520;27.448;2022-09-09T05:07:02;8.13;;;4.37;;
8574;SDS011;4325;42.520;27.448;2022-09-09T05:09:29;9.43;;;6.53;;
8574;SDS011;4325;42.520;27.448;2022-09-09T05:11:56;8.83;;;4.67;;
8574;SDS011;4325;42.520;27.448;2022-09-09T05:14:23;7.07;;;3.93;;
8574;SDS011;4325;42.520;27.448;2022-09-09T05:16:50;5.40;;;4.20;;
8574;SDS011;4325;42.520;27.448;2022-09-09T05:19:18;8.43;;;4.63;;
8574;SDS011;4325;42.520;27.448;2022-09-09T05:21:45;6.50;;;4.20;;
8574;SDS011;4325;42.520;27.448;2022-09-09T05:24:12;11.63;;;4.77;;
8574;SDS011;4325;42.520;27.448;2022-09-09T05:26:39;8.20;;;4.00;;
8574;SDS011;4325;42.520;27.448;2022-09-09T05:29:06;12.10;;;4.47;;
8574;SDS011;4325;42.520;27.448;2022-09-09T05:31:33;5.43;;;4.43;;
8574;SDS011;4325;42.520;27.448;2022-09-09T05:34:00;9.00;;;4.10;;
8574;SDS011;4325;42.520;27.448;2022-09-09T05:36:28;8.23;;;4.00;;
8574;SDS011;4325;42.520;27.448;2022-09-09T05:38:55;16.83;;;14.80;;
8574;SDS011;4325;42.520;27.448;2022-09-09T05:41:22;14.93;;;8.57;;
8574;SDS011;4325;42.520;27.448;2022-09-09T05:43:49;11.00;;;5.50;;
8574;SDS011;4325;42.520;27.448;2022-09-09T05:46:16;7.30;;;4.70;;
8574;SDS011;4325;42.520;27.448;2022-09-09T05:48:45;5.73;;;4.93;;
8574;SDS011;4325;42.520;27.448;2022-09-09T05:51:14;6.33;;;4.57;;
8574;SDS011;4325;42.520;27.448;2022-09-09T05:53:44;10.00;;;3.90;;
8574;SDS011;4325;42.520;27.448;2022-09-09T05:56:12;10.93;;;3.90;;
8574;SDS011;4325;42.520;27.448;2022-09-09T05:58:40;5.70;;;3.07;;
8574;SDS011;4325;42.520;27.448;2022-09-09T06:01:09;5.70;;;3.50;;
8574;SDS011;4325;42.520;27.448;2022-09-09T06:03:38;9.37;;;3.57;;
8574;SDS011;4325;42.520;27.448;2022-09-09T06:06:07;6.57;;;3.93;;
8574;SDS011;4325;42.520;27.448;2022-09-09T06:08:37;4.43;;;3.63;;
8574;SDS011;4325;42.520;27.448;2022-09-09T06:11:06;6.53;;;3.47;;
8574;SDS011;4325;42.520;27.448;2022-09-09T06:13:35;9.23;;;6.07;;
8574;SDS011;4325;42.520;27.448;2022-09-09T06:16:04;6.97;;;3.67;;
8574;SDS011;4325;42.520;27.448;2022-09-09T06:18:32;9.30;;;6.53;;
8574;SDS011;4325;42.520;27.448;2022-09-09T06:20:59;7.67;;;3.97;;
8574;SDS011;4325;42.520;27.448;2022-09-09T06:23:28;10.27;;;4.03;;
8574;SDS011;4325;42.520;27.448;2022-09-09T06:26:02;6.60;;;3.93;;
8574;SDS011;4325;42.520;27.448;2022-09-09T06:28:32;8.47;;;4.13;;
8574;SDS011;4325;42.520;27.448;2022-09-09T06:31:00;7.17;;;4.37;;
8574;SDS011;4325;42.520;27.448;2022-09-09T06:33:30;7.70;;;3.30;;
8574;SDS011;4325;42.520;27.448;2022-09-09T06:36:01;9.20;;;3.20;;
8574;SDS011;4325;42.520;27.448;2022-09-09T06:38:30;6.20;;;3.70;;
8574;SDS011;4325;42.520;27.448;2022-09-09T06:40:57;8.17;;;4.10;;
8574;SDS011;4325;42.520;27.448;2022-09-09T06:43:26;10.13;;;6.77;;
8574;SDS011;4325;42.520;27.448;2022-09-09T06:45:55;9.00;;;5.97;;
8574;SDS011;4325;42.520;27.448;2022-09-09T06:48:23;20.27;;;7.77;;
8574;SDS011;4325;42.520;27.448;2022-09-09T06:50:51;13.30;;;6.53;;
8574;SDS011;4325;42.520;27.448;2022-09-09T06:53:27;10.50;;;5.93;;
8574;SDS011;4325;42.520;27.448;2022-09-09T06:55:53;8.70;;;4.83;;
8574;SDS011;4325;42.520;27.448;2022-09-09T06:58:20;7.87;;;4.47;;
8574;SDS011;4325;42.520;27.448;2022-09-09T07:00:48;6.43;;;3.57;;
8574;SDS011;4325;42.520;27.448;2022-09-09T07:03:16;4.23;;;3.50;;
8574;SDS011;4325;42.520;27.448;2022-09-09T07:05:43;4.57;;;2.97;;
8574;SDS011;4325;42.520;27.448;2022-09-09T07:08:21;4.23;;;3.00;;
8574;SDS011;4325;42.520;27.448;2022-09-09T07:10:48;9.30;;;3.37;;
8574;SDS011;4325;42.520;27.448;2022-09-09T07:13:16;3.03;;;2.60;;
8574;SDS011;4325;42.520;27.448;2022-09-09T07:15:45;7.00;;;2.70;;
8574;SDS011;4325;42.520;27.448;2022-09-09T07:18:12;3.57;;;2.63;;
8574;SDS011;4325;42.520;27.448;2022-09-09T07:20:40;6.30;;;2.50;;
8574;SDS011;4325;42.520;27.448;2022-09-09T07:23:07;4.27;;;3.13;;
8574;SDS011;4325;42.520;27.448;2022-09-09T07:25:33;5.20;;;3.20;;
8574;SDS011;4325;42.520;27.448;2022-09-09T07:28:01;7.60;;;3.23;;
8574;SDS011;4325;42.520;27.448;2022-09-09T07:30:28;5.13;;;3.10;;
8574;SDS011;4325;42.520;27.448;2022-09-09T07:32:55;9.83;;;3.37;;
8574;SDS011;4325;42.520;27.448;2022-09-09T07:35:24;4.53;;;3.50;;
8574;SDS011;4325;42.520;27.448;2022-09-09T07:37:53;6.30;;;3.97;;
8574;SDS011;4325;42.520;27.448;2022-09-09T07:40:20;4.37;;;3.17;;
8574;SDS011;4325;42.520;27.448;2022-09-09T07:42:47;7.77;;;3.30;;
8574;SDS011;4325;42.520;27.448;2022-09-09T07:45:14;9.83;;;3.00;;
8574;SDS011;4325;42.520;27.448;2022-09-09T07:47:41;10.07;;;3.37;;
8574;SDS011;4325;42.520;27.448;2022-09-09T07:50:08;8.37;;;2.53;;
8574;SDS011;4325;42.520;27.448;2022-09-09T07:52:35;3.60;;;2.50;;
8574;SDS011;4325;42.520;27.448;2022-09-09T07:55:07;9.03;;;2.50;;
8574;SDS011;4325;42.520;27.448;2022-09-09T07:57:34;6.17;;;2.50;;
8574;SDS011;4325;42.520;27.448;2022-09-09T08:00:02;9.97;;;2.73;;
8574;SDS011;4325;42.520;27.448;2022-09-09T08:02:29;5.53;;;2.67;;
8574;SDS011;4325;42.520;27.448;2022-09-09T08:04:56;6.27;;;2.40;;
8574;SDS011;4325;42.520;27.448;2022-09-09T08:07:23;4.50;;;2.03;;
8574;SDS011;4325;42.520;27.448;2022-09-09T08:09:50;4.07;;;2.00;;
8574;SDS011;4325;42.520;27.448;2022-09-09T08:12:18;4.43;;;1.70;;
8574;SDS011;4325;42.520;27.448;2022-09-09T08:14:45;2.63;;;1.70;;
8574;SDS011;4325;42.520;27.448;2022-09-09T08:17:12;4.50;;;1.87;;
8574;SDS011;4325;42.520;27.448;2022-09-09T08:19:39;4.03;;;1.93;;
8574;SDS011;4325;42.520;27.448;2022-09-09T08:22:05;3.60;;;1.37;;
8574;SDS011;4325;42.520;27.448;2022-09-09T08:24:32;5.70;;;1.80;;
8574;SDS011;4325;42.520;27.448;2022-09-09T08:26:59;5.23;;;1.53;;
8574;SDS011;4325;42.520;27.448;2022-09-09T08:29:28;5.37;;;1.80;;
8574;SDS011;4325;42.520;27.448;2022-09-09T08:31:55;10.90;;;2.47;;
8574;SDS011;4325;42.520;27.448;2022-09-09T08:34:23;6.27;;;2.00;;
8574;SDS011;4325;42.520;27.448;2022-09-09T08:36:52;6.60;;;2.03;;
8574;SDS011;4325;42.520;27.448;2022-09-09T08:39:20;2.90;;;2.07;;
8574;SDS011;4325;42.520;27.448;2022-09-09T08:41:55;8.63;;;2.47;;
8574;SDS011;4325;42.520;27.448;2022-09-09T08:44:52;6.00;;;2.47;;
8574;SDS011;4325;42.520;27.448;2022-09-09T08:47:35;8.73;;;2.50;;
8574;SDS011;4325;42.520;27.448;2022-09-09T08:50:16;7.87;;;2.57;;
8574;SDS011;4325;42.520;27.448;2022-09-09T08:52:53;6.70;;;2.35;;
8574;SDS011;4325;42.520;27.448;2022-09-09T08:55:27;6.28;;;2.38;;
8574;SDS011;4325;42.520;27.448;2022-09-09T08:58:04;4.20;;;2.42;;
8574;SDS011;4325;42.520;27.448;2022-09-09T09:00:40;4.00;;;2.25;;
8574;SDS011;4325;42.520;27.448;2022-09-09T09:03:19;4.75;;;2.30;;
8574;SDS011;4325;42.520;27.448;2022-09-09T09:06:03;4.93;;;2.00;;
8574;SDS011;4325;42.520;27.448;2022-09-09T09:08:39;9.95;;;1.92;;
8574;SDS011;4325;42.520;27.448;2022-09-09T09:11:13;2.60;;;1.90;;
8574;SDS011;4325;42.520;27.448;2022-09-09T09:13:41;3.15;;;1.88;;
8574;SDS011;4325;42.520;27.448;2022-09-09T09:16:15;4.47;;;2.17;;
8574;SDS011;4325;42.520;27.448;2022-09-09T09:18:48;3.50;;;1.50;;
8574;SDS011;4325;42.520;27.448;2022-09-09T09:21:17;3.03;;;1.70;;
8574;SDS011;4325;42.520;27.448;2022-09-09T09:23:54;4.82;;;1.98;;
8574;SDS011;4325;42.520;27.448;2022-09-09T09:26:23;4.28;;;2.42;;
8574;SDS011;4325;42.520;27.448;2022-09-09T09:28:55;7.90;;;3.13;;
8574;SDS011;4325;42.520;27.448;2022-09-09T09:31:24;2.65;;;2.22;;
8574;SDS011;4325;42.520;27.448;2022-09-09T09:33:52;4.82;;;1.77;;
8574;SDS011;4325;42.520;27.448;2022-09-09T09:36:21;3.45;;;1.90;;
8574;SDS011;4325;42.520;27.448;2022-09-09T09:38:51;4.38;;;2.20;;
8574;SDS011;4325;42.520;27.448;2022-09-09T09:41:33;3.45;;;1.70;;
8574;SDS011;4325;42.520;27.448;2022-09-09T09:44:02;4.50;;;1.85;;
8574;SDS011;4325;42.520;27.448;2022-09-09T09:46:31;3.92;;;1.80;;
8574;SDS011;4325;42.520;27.448;2022-09-09T09:48:59;3.50;;;1.90;;
8574;SDS011;4325;42.520;27.448;2022-09-09T09:51:28;1.77;;;1.63;;
8574;SDS011;4325;42.520;27.448;2022-09-09T09:54:03;4.03;;;1.60;;
8574;SDS011;4325;42.520;27.448;2022-09-09T09:56:35;5.05;;;2.13;;
8574;SDS011;4325;42.520;27.448;2022-09-09T09:59:02;5.90;;;1.77;;
8574;SDS011;4325;42.520;27.448;2022-09-09T10:01:30;2.15;;;1.70;;
8574;SDS011;4325;42.520;27.448;2022-09-09T10:04:00;3.17;;;2.35;;
8574;SDS011;4325;42.520;27.448;2022-09-09T10:06:32;2.20;;;2.00;;
8574;SDS011;4325;42.520;27.448;2022-09-09T10:09:00;3.38;;;1.52;;
8574;SDS011;4325;42.520;27.448;2022-09-09T10:11:39;5.30;;;1.90;;
8574;SDS011;4325;42.520;27.448;2022-09-09T10:14:13;9.45;;;2.35;;
8574;SDS011;4325;42.520;27.448;2022-09-09T10:17:01;3.50;;;1.42;;
8574;SDS011;4325;42.520;27.448;2022-09-09T10:19:37;4.28;;;1.77;;
8574;SDS011;4325;42.520;27.448;2022-09-09T10:22:12;4.97;;;1.42;;
8574;SDS011;4325;42.520;27.448;2022-09-09T10:27:49;4.25;;;1.38;;
8574;SDS011;4325;42.520;27.448;2022-09-09T10:30:35;2.97;;;1.48;;
8574;SDS011;4325;42.520;27.448;2022-09-09T10:33:19;3.75;;;1.20;;
8574;SDS011;4325;42.520;27.448;2022-09-09T10:35:54;2.47;;;1.17;;
8574;SDS011;4325;42.520;27.448;2022-09-09T10:38:32;4.72;;;1.70;;
8574;SDS011;4325;42.520;27.448;2022-09-09T10:41:13;4.57;;;1.67;;
8574;SDS011;4325;42.520;27.448;2022-09-09T10:46:43;3.83;;;1.60;;
8574;SDS011;4325;42.520;27.448;2022-09-09T10:49:22;4.97;;;1.42;;
8574;SDS011;4325;42.520;27.448;2022-09-09T10:52:04;7.85;;;1.80;;
8574;SDS011;4325;42.520;27.448;2022-09-09T10:54:41;5.60;;;1.55;;
8574;SDS011;4325;42.520;27.448;2022-09-09T10:57:22;1.98;;;1.40;;
8574;SDS011;4325;42.520;27.448;2022-09-09T10:59:56;4.47;;;1.60;;
8574;SDS011;4325;42.520;27.448;2022-09-09T11:02:29;4.57;;;1.63;;
8574;SDS011;4325;42.520;27.448;2022-09-09T11:04:59;3.83;;;1.73;;
8574;SDS011;4325;42.520;27.448;2022-09-09T11:07:33;5.30;;;1.60;;
8574;SDS011;4325;42.520;27.448;2022-09-09T11:10:05;3.80;;;1.77;;
8574;SDS011;4325;42.520;27.448;2022-09-09T11:12:44;5.03;;;1.85;;
8574;SDS011;4325;42.520;27.448;2022-09-09T11:15:15;1.88;;;1.17;;
8574;SDS011;4325;42.520;27.448;2022-09-09T11:17:48;4.57;;;1.40;;
8574;SDS011;4325;42.520;27.448;2022-09-09T11:20:21;1.70;;;1.33;;
8574;SDS011;4325;42.520;27.448;2022-09-09T11:22:51;10.05;;;2.10;;
8574;SDS011;4325;42.520;27.448;2022-09-09T11:25:22;7.88;;;2.28;;
8574;SDS011;4325;42.520;27.448;2022-09-09T11:27:56;5.53;;;1.95;;
8574;SDS011;4325;42.520;27.448;2022-09-09T11:30:51;5.63;;;3.70;;
8574;SDS011;4325;42.520;27.448;2022-09-09T11:33:49;4.15;;;2.38;;
8574;SDS011;4325;42.520;27.448;2022-09-09T11:36:46;4.88;;;2.38;;
8574;SDS011;4325;42.520;27.448;2022-09-09T11:39:28;2.75;;;1.50;;
8574;SDS011;4325;42.520;27.448;2022-09-09T11:42:12;7.05;;;2.03;;
8574;SDS011;4325;42.520;27.448;2022-09-09T11:44:43;4.57;;;1.67;;
8574;SDS011;4325;42.520;27.448;2022-09-09T11:47:21;2.75;;;1.65;;
8574;SDS011;4325;42.520;27.448;2022-09-09T11:49:54;6.72;;;1.70;;
8574;SDS011;4325;42.520;27.448;2022-09-09T11:52:23;2.60;;;1.70;;
8574;SDS011;4325;42.520;27.448;2022-09-09T11:54:52;3.25;;;1.48;;
8574;SDS011;4325;42.520;27.448;2022-09-09T11:57:25;4.88;;;1.77;;
8574;SDS011;4325;42.520;27.448;2022-09-09T11:59:57;3.10;;;1.67;;
8574;SDS011;4325;42.520;27.448;2022-09-09T12:02:25;3.22;;;1.85;;
8574;SDS011;4325;42.520;27.448;2022-09-09T12:04:57;6.85;;;1.83;;
8574;SDS011;4325;42.520;27.448;2022-09-09T12:07:33;4.32;;;2.08;;
8574;SDS011;4325;42.520;27.448;2022-09-09T12:10:05;6.45;;;2.03;;
8574;SDS011;4325;42.520;27.448;2022-09-09T12:12:48;2.53;;;1.48;;
8574;SDS011;4325;42.520;27.448;2022-09-09T12:15:25;3.20;;;1.92;;
8574;SDS011;4325;42.520;27.448;2022-09-09T12:17:54;4.72;;;1.80;;
8574;SDS011;4325;42.520;27.448;2022-09-09T12:20:23;5.50;;;1.95;;
8574;SDS011;4325;42.520;27.448;2022-09-09T12:25:52;3.95;;;1.80;;
8574;SDS011;4325;42.520;27.448;2022-09-09T12:28:27;4.63;;;2.42;;
8574;SDS011;4325;42.520;27.448;2022-09-09T12:31:08;5.78;;;2.20;;
8574;SDS011;4325;42.520;27.448;2022-09-09T12:33:43;6.43;;;2.65;;
8574;SDS011;4325;42.520;27.448;2022-09-09T12:36:13;6.00;;;2.65;;
8574;SDS011;4325;42.520;27.448;2022-09-09T12:38:45;5.70;;;2.20;;
8574;SDS011;4325;42.520;27.448;2022-09-09T12:41:18;3.55;;;2.00;;
8574;SDS011;4325;42.520;27.448;2022-09-09T12:43:47;9.45;;;2.60;;
8574;SDS011;4325;42.520;27.448;2022-09-09T12:46:17;6.32;;;2.05;;
8574;SDS011;4325;42.520;27.448;2022-09-09T12:48:55;5.30;;;2.90;;
8574;SDS011;4325;42.520;27.448;2022-09-09T12:51:23;2.88;;;2.00;;
8574;SDS011;4325;42.520;27.448;2022-09-09T12:53:54;4.65;;;1.95;;
8574;SDS011;4325;42.520;27.448;2022-09-09T12:56:23;3.67;;;1.65;;
8574;SDS011;4325;42.520;27.448;2022-09-09T12:59:17;4.50;;;2.35;;
8574;SDS011;4325;42.520;27.448;2022-09-09T13:01:55;4.28;;;2.05;;
8574;SDS011;4325;42.520;27.448;2022-09-09T13:04:22;3.30;;;2.10;;
8574;SDS011;4325;42.520;27.448;2022-09-09T13:06:49;3.72;;;2.00;;
8574;SDS011;4325;42.520;27.448;2022-09-09T13:09:18;13.68;;;2.55;;
8574;SDS011;4325;42.520;27.448;2022-09-09T13:11:46;4.00;;;1.95;;
8574;SDS011;4325;42.520;27.448;2022-09-09T13:14:22;7.70;;;2.47;;
8574;SDS011;4325;42.520;27.448;2022-09-09T13:16:55;4.63;;;2.55;;
8574;SDS011;4325;42.520;27.448;2022-09-09T13:19:24;3.35;;;2.63;;
8574;SDS011;4325;42.520;27.448;2022-09-09T13:21:54;6.13;;;2.30;;
8574;SDS011;4325;42.520;27.448;2022-09-09T13:24:27;6.20;;;2.08;;
8574;SDS011;4325;42.520;27.448;2022-09-09T13:26:56;3.90;;;2.03;;
8574;SDS011;4325;42.520;27.448;2022-09-09T13:29:38;3.63;;;1.95;;
8574;SDS011;4325;42.520;27.448;2022-09-09T13:32:06;4.90;;;2.70;;
8574;SDS011;4325;42.520;27.448;2022-09-09T13:34:39;5.05;;;2.80;;
8574;SDS011;4325;42.520;27.448;2022-09-09T13:37:17;4.35;;;2.55;;
8574;SDS011;4325;42.520;27.448;2022-09-09T13:39:51;3.97;;;2.05;;
8574;SDS011;4325;42.520;27.448;2022-09-09T13:42:22;7.30;;;2.40;;
8574;SDS011;4325;42.520;27.448;2022-09-09T13:44:53;3.13;;;2.00;;
8574;SDS011;4325;42.520;27.448;2022-09-09T13:47:27;4.75;;;3.08;;
8574;SDS011;4325;42.520;27.448;2022-09-09T13:49:57;6.20;;;1.85;;
8574;SDS011;4325;42.520;27.448;2022-09-09T13:52:23;5.10;;;2.40;;
8574;SDS011;4325;42.520;27.448;2022-09-09T13:54:55;2.78;;;1.90;;
8574;SDS011;4325;42.520;27.448;2022-09-09T13:57:24;4.00;;;2.00;;
8574;SDS011;4325;42.520;27.448;2022-09-09T13:59:54;9.35;;;2.60;;
8574;SDS011;4325;42.520;27.448;2022-09-09T14:02:21;6.03;;;1.98;;
8574;SDS011;4325;42.520;27.448;2022-09-09T14:04:49;10.70;;;2.50;;
8574;SDS011;4325;42.520;27.448;2022-09-09T14:07:20;3.65;;;2.25;;
8574;SDS011;4325;42.520;27.448;2022-09-09T14:09:47;6.03;;;4.40;;
8574;SDS011;4325;42.520;27.448;2022-09-09T14:12:16;4.93;;;2.73;;
8574;SDS011;4325;42.520;27.448;2022-09-09T14:14:43;2.93;;;2.30;;
8574;SDS011;4325;42.520;27.448;2022-09-09T14:17:12;3.70;;;2.33;;
8574;SDS011;4325;42.520;27.448;2022-09-09T14:19:39;4.97;;;2.30;;
8574;SDS011;4325;42.520;27.448;2022-09-09T14:22:06;5.87;;;2.50;;
8574;SDS011;4325;42.520;27.448;2022-09-09T14:24:33;9.93;;;2.30;;
8574;SDS011;4325;42.520;27.448;2022-09-09T14:27:00;10.10;;;2.30;;
8574;SDS011;4325;42.520;27.448;2022-09-09T14:29:27;6.80;;;2.20;;
8574;SDS011;4325;42.520;27.448;2022-09-09T14:31:54;3.83;;;2.27;;
8574;SDS011;4325;42.520;27.448;2022-09-09T14:34:22;4.70;;;2.50;;
8574;SDS011;4325;42.520;27.448;2022-09-09T14:36:49;3.30;;;2.30;;
8574;SDS011;4325;42.520;27.448;2022-09-09T14:39:16;5.30;;;2.50;;
8574;SDS011;4325;42.520;27.448;2022-09-09T14:41:43;3.83;;;2.33;;
8574;SDS011;4325;42.520;27.448;2022-09-09T14:44:10;4.97;;;2.77;;
8574;SDS011;4325;42.520;27.448;2022-09-09T14:46:37;5.23;;;2.43;;
8574;SDS011;4325;42.520;27.448;2022-09-09T14:49:04;7.57;;;2.87;;
8574;SDS011;4325;42.520;27.448;2022-09-09T14:51:32;3.33;;;2.43;;
8574;SDS011;4325;42.520;27.448;2022-09-09T14:53:59;3.73;;;2.47;;
8574;SDS011;4325;42.520;27.448;2022-09-09T14:56:28;3.57;;;2.40;;
8574;SDS011;4325;42.520;27.448;2022-09-09T14:58:57;8.40;;;2.90;;
8574;SDS011;4325;42.520;27.448;2022-09-09T15:01:26;8.23;;;2.57;;
8574;SDS011;4325;42.520;27.448;2022-09-09T15:03:55;3.00;;;2.37;;
8574;SDS011;4325;42.520;27.448;2022-09-09T15:06:24;5.70;;;2.80;;
8574;SDS011;4325;42.520;27.448;2022-09-09T15:08:53;4.03;;;2.30;;
8574;SDS011;4325;42.520;27.448;2022-09-09T15:11:22;8.33;;;2.53;;
8574;SDS011;4325;42.520;27.448;2022-09-09T15:13:50;6.37;;;2.50;;
8574;SDS011;4325;42.520;27.448;2022-09-09T15:16:20;6.27;;;3.53;;
8574;SDS011;4325;42.520;27.448;2022-09-09T15:18:50;7.77;;;2.93;;
8574;SDS011;4325;42.520;27.448;2022-09-09T15:21:20;6.97;;;2.57;;
8574;SDS011;4325;42.520;27.448;2022-09-09T15:23:48;9.13;;;2.57;;
8574;SDS011;4325;42.520;27.448;2022-09-09T15:26:17;5.47;;;2.50;;
8574;SDS011;4325;42.520;27.448;2022-09-09T15:28:45;6.50;;;2.80;;
8574;SDS011;4325;42.520;27.448;2022-09-09T15:31:15;3.53;;;2.20;;
8574;SDS011;4325;42.520;27.448;2022-09-09T15:33:46;5.77;;;2.67;;
8574;SDS011;4325;42.520;27.448;2022-09-09T15:36:14;7.73;;;2.30;;